Latest Weather Observations for Thredbo Top Station

IDN60901

Issued at 6:01 pm EST Sunday 1 May 2016 (issued every 10 minutes, with the page automatically refreshed every 10 minutes)

About weather observations | Map of Canberra area stations | Latest observations for Canberra area | Other Formats
Station Details ID: 071032 Name: THREDBO AWS Lat: -36.49 Lon: 148.29 Height: 1957.0 m
Data from the previous 72 hours. | See also: Recent months at Thredbo Top Station
Date/Time
EST
Tmp

°C
App
Tmp
°C
Dew
Point
°C
Rel
Hum
%
Delta-T

°C
Wind Press
QNH
hPa
Press
MSL
hPa
Rain
since
9 am
mm
Dir
 
Spd
km/h
Gust
km/h
Spd
kts
Gust
kts
01/05:30pm 0.2 -9.6 0.1 99 0.0 NW 41 59 22 32 - - 2.2
01/05:00pm 0.3 -11.2 -0.1 97 0.2 NNW 50 74 27 40 - - 2.2
01/04:30pm 0.6 -11.4 -0.8 90 0.6 NNW 52 76 28 41 - - 2.2
01/04:02pm 0.7 -9.7 -0.6 91 0.5 NW 44 63 24 34 - - 2.2
01/04:00pm 0.8 -9.4 -0.6 90 0.6 NW 43 59 23 32 - - 2.2
01/03:55pm 0.8 -10.0 -0.6 90 0.6 NW 46 67 25 36 - - 2.2
01/03:30pm 0.9 -12.5 -1.5 84 1.0 NW 59 98 32 53 - - 2.2
01/03:14pm 1.1 -11.9 -1.1 85 0.9 NW 57 91 31 49 - - 2.2
01/03:00pm 1.1 -9.3 -0.2 91 0.5 NW 44 76 24 41 - - 2.2
01/02:30pm 1.4 -11.3 -0.8 85 0.9 NW 56 93 30 50 - - 2.2
01/02:27pm 1.5 -10.8 -0.4 87 0.8 NW 54 93 29 50 - - 2.2
01/02:00pm 1.5 -8.7 0.8 95 0.3 NW 44 74 24 40 - - 2.2
01/01:30pm 1.5 -9.6 0.0 90 0.6 NW 48 83 26 45 - - 2.2
01/01:21pm 1.5 -12.8 -0.1 89 0.7 NW 65 104 35 56 - - 2.2
01/01:00pm 2.3 -13.5 -1.1 78 1.4 NNW 72 93 39 50 - - 2.2
01/12:48pm 3.1 -12.1 0.7 84 1.0 NNW 70 102 38 55 - - 2.2
01/12:43pm 2.9 -11.4 0.3 83 1.1 NW 65 102 35 55 - - 2.2
01/12:30pm 3.0 -10.1 0.9 86 0.9 NW 59 91 32 49 - - 2.2
01/12:11pm 2.5 -10.0 2.2 98 0.1 NW 57 104 31 56 - - 2.2
01/12:00pm 2.5 -9.0 2.4 99 0.0 NW 52 82 28 44 - - 2.2
01/11:30am 2.3 -10.2 2.0 98 0.1 NW 57 89 31 48 - - 2.2
01/11:16am 1.7 -11.2 1.6 99 0.0 NW 59 113 32 61 - - 2.2
01/11:00am 2.0 -11.3 1.9 99 0.0 NW 61 93 33 50 - - 2.2
01/10:47am 2.2 -9.7 2.1 99 0.0 NW 54 89 29 48 - - 2.2
01/10:40am 2.2 -10.3 2.1 99 0.0 NW 57 104 31 56 - - 2.2
01/10:35am 1.9 -10.6 1.8 99 0.0 NW 57 104 31 56 - - 2.0
01/10:30am 2.1 -9.1 2.0 99 0.0 NW 50 87 27 47 - - 1.6
01/10:29am 2.1 -9.1 2.0 99 0.0 NW 50 87 27 47 - - 1.4
01/10:18am 3.2 -8.5 3.1 99 0.0 NW 54 93 29 50 - - 0.4
01/10:00am 3.5 -10.7 3.4 99 0.0 NW 67 111 36 60 - - 0.4
01/09:55am 3.7 -13.3 3.6 99 0.0 NNW 82 111 44 60 - - 0.4
01/09:50am 3.8 -12.8 3.5 98 0.1 NNW 80 111 43 60 - - 0.4
01/09:30am 4.4 -10.0 4.3 99 0.0 NNW 69 113 37 61 - - 0.4
01/09:27am 4.3 -9.3 4.2 99 0.0 NW 65 113 35 61 - - 0.4
01/09:00am 5.0 -8.1 4.9 99 0.0 NW 63 95 34 51 - - 27.6
01/08:50am 5.2 -10.0 5.1 99 0.0 NW 74 107 40 58 - - 27.4
01/08:49am 5.3 -10.2 5.2 99 0.0 NW 76 107 41 58 - - 27.4
01/08:30am 6.0 -9.8 5.9 99 0.1 NNW 78 102 42 55 - - 23.8
01/08:00am 6.2 -8.4 6.1 99 0.1 NNW 72 106 39 57 - - 23.6
01/07:53am 6.2 -5.9 6.1 99 0.1 NNW 59 106 32 57 - - 23.6
01/07:51am 6.3 -4.8 6.2 99 0.1 NW 54 93 29 50 - - 23.6
01/07:44am 6.3 -5.8 6.2 99 0.1 NW 59 96 32 52 - - 23.6
01/07:42am 6.2 -6.3 6.1 99 0.1 NW 61 96 33 52 - - 23.6
01/07:39am 6.5 -5.5 6.4 99 0.1 NW 59 96 32 52 - - 23.4
01/07:30am 6.4 -4.7 6.3 99 0.1 NW 54 82 29 44 - - 23.4
01/07:06am 6.8 -3.8 6.7 99 0.1 NW 52 87 28 47 - - 21.8
01/07:03am 7.1 -4.4 7.0 99 0.1 NW 57 89 31 48 - - 21.6
01/07:00am 7.2 -5.1 7.1 99 0.1 NNW 61 89 33 48 - - 19.8
01/06:53am 6.8 -6.3 6.7 99 0.1 NNW 65 95 35 51 - - 18.6
01/06:41am 7.0 -6.4 6.9 99 0.1 NNW 67 95 36 51 - - 14.2
01/06:39am 7.1 -5.9 7.0 99 0.1 NNW 65 95 35 51 - - 14.2
01/06:30am 7.1 -4.8 7.0 99 0.1 NNW 59 85 32 46 - - 12.8
01/06:00am 7.0 -6.8 6.9 99 0.1 NNW 69 113 37 61 - - 8.4
01/05:30am 7.0 -6.8 6.9 99 0.1 NNW 69 100 37 54 - - 5.4
01/05:22am 7.1 -7.3 7.0 99 0.1 NNW 72 106 39 57 - - 5.4
01/05:21am 7.2 -6.8 7.1 99 0.1 NNW 70 106 38 57 - - 5.4
01/05:19am 7.2 -7.2 7.1 99 0.1 NNW 72 106 39 57 - - 5.4
01/05:18am 7.3 -7.0 7.2 99 0.1 NNW 72 106 39 57 - - 5.4
01/05:00am 7.0 -6.4 6.9 99 0.1 NNW 67 100 36 54 - - 5.4
01/04:30am 7.2 -6.6 7.1 99 0.1 NNW 69 102 37 55 - - 5.0
01/04:00am 8.0 -4.5 7.9 99 0.1 N 63 85 34 46 - - 2.8
01/03:30am 7.9 -6.0 7.6 98 0.2 NNW 70 98 38 53 - - 2.8
01/03:00am 7.6 -6.1 7.5 99 0.1 NNW 69 98 37 53 - - 2.8
01/02:30am 7.1 -7.5 6.2 94 0.5 NNW 72 91 39 49 - - 2.8
01/02:01am 7.0 -6.8 6.9 99 0.1 NNW 69 87 37 47 - - 2.8
01/02:00am 6.9 -6.6 6.8 99 0.1 NNW 67 82 36 44 - - 2.8
01/01:41am 7.0 -5.3 6.9 99 0.1 NNW 61 82 33 44 - - 2.8
01/01:30am 7.0 -4.9 6.9 99 0.1 NNW 59 76 32 41 - - 2.8
01/01:08am 7.0 -3.6 6.9 99 0.1 NNW 52 76 28 41 1014.7 1011.0 2.8
01/01:00am 6.9 -3.3 6.8 99 0.1 NNW 50 67 27 36 1015.1 1011.5 2.8
01/12:30am 6.8 -3.6 6.2 96 0.3 NNW 50 70 27 38 1016.1 1012.5 2.8
01/12:00am 7.0 -4.4 4.8 86 1.1 NNW 54 80 29 43 1016.5 1012.9 2.8
 
Date/Time
EST
Tmp

°C
App
Tmp
°C
Dew
Point
°C
Rel
Hum
%
Delta-T

°C
Wind Press
QNH
hPa
Press
MSL
hPa
Rain
since
9 am
mm
Dir
 
Spd
km/h
Gust
km/h
Spd
kts
Gust
kts
30/11:38pm 6.8 -5.3 5.9 94 0.5 NNW 59 78 32 42 1016.2 1012.6 2.8
30/11:30pm 6.7 -6.2 5.7 93 0.5 NNW 63 78 34 42 1016.4 1012.7 2.8
30/11:00pm 7.0 -7.9 6.3 95 0.4 NNW 74 98 40 53 1014.8 1011.1 2.8
30/10:30pm 7.1 -8.5 6.4 95 0.4 NNW 78 104 42 56 1014.9 1011.2 2.8
30/10:00pm 7.1 -9.3 6.4 95 0.4 NNW 82 100 44 54 1014.4 1010.7 2.8
30/09:30pm 7.3 -6.6 6.4 94 0.5 NNW 69 95 37 51 1016.2 1012.6 2.8
30/09:00pm 7.1 -6.1 6.4 95 0.4 NW 65 96 35 52 1017.0 1013.4 2.8
30/08:37pm 7.0 -6.6 6.4 96 0.3 NNW 67 85 36 46 1016.8 1013.3 2.8
30/08:30pm 7.2 -6.5 5.7 90 0.8 NNW 67 83 36 45 1016.6 1013.0 2.8
30/08:00pm 7.1 -6.2 5.7 91 0.7 NNW 65 85 35 46 1017.3 1013.8 2.8
30/07:30pm 7.2 -4.9 6.1 93 0.6 NNW 59 83 32 45 1017.4 1013.9 2.8
30/07:00pm 7.1 -4.1 5.7 91 0.7 NNW 54 72 29 39 1017.9 1014.4 2.8
30/06:54pm 7.0 -3.7 6.4 96 0.3 NNW 52 72 28 39 1017.9 1014.4 2.8
30/06:30pm 7.0 -2.9 6.4 96 0.3 NNW 48 63 26 34 1018.7 1015.1 2.8
30/06:00pm 7.0 -1.3 6.3 95 0.4 NNW 39 61 21 33 1019.3 1015.8 2.8
30/05:30pm 7.0 -0.4 6.6 97 0.2 NW 35 54 19 29 1019.3 1015.8 2.8
30/05:00pm 7.1 -0.2 7.0 99 0.1 NNW 35 61 19 33 1019.9 1016.4 2.8
30/04:47pm 7.4 0.6 7.0 97 0.2 NW 32 50 17 27 1019.6 1016.2 2.8
30/04:30pm 7.4 0.7 7.3 99 0.1 NW 32 44 17 24 1020.1 1016.7 2.8
30/04:20pm 7.4 0.7 7.3 99 0.1 NNW 32 54 17 29 1019.9 1016.4 2.8
30/04:00pm 7.4 0.7 7.3 99 0.1 NNW 32 48 17 26 1019.9 1016.4 2.8
30/03:36pm 7.8 -0.3 6.9 94 0.5 NNW 39 57 21 31 1019.3 1015.8 2.8
30/03:30pm 7.5 -0.1 7.4 99 0.1 NNW 37 52 20 28 1019.6 1016.2 2.8
30/03:00pm 7.7 -1.0 7.6 99 0.1 NNW 43 56 23 30 1019.3 1015.8 2.8
30/02:43pm 7.7 -1.2 7.6 99 0.1 NW 44 63 24 34 1019.0 1015.5 2.8
30/02:30pm 7.7 -2.0 7.6 99 0.1 NNW 48 63 26 34 1018.9 1015.4 2.8
30/02:00pm 7.5 -3.4 7.4 99 0.1 NNW 54 67 29 36 1018.8 1015.3 2.8
30/01:30pm 7.5 -3.0 7.4 99 0.1 NNW 52 67 28 36 1018.8 1015.3 2.8
30/01:00pm 7.5 -2.2 7.4 99 0.1 NNW 48 59 26 32 1019.1 1015.7 2.8
30/12:30pm 7.8 -0.5 7.7 99 0.1 NNW 41 59 22 32 1019.9 1016.4 2.6
30/12:04pm 7.9 -1.0 7.8 99 0.1 NNW 44 63 24 34 1020.2 1016.8 2.4
30/12:00pm 7.7 -1.2 7.6 99 0.1 NNW 44 59 24 32 1020.6 1017.2 2.2
30/11:39am 7.5 0.6 7.4 99 0.1 NW 33 52 18 28 1021.3 1017.9 2.0
30/11:30am 7.7 -0.3 7.6 99 0.1 NNW 39 54 21 29 1021.3 1017.9 2.0
30/11:18am 7.9 0.7 7.8 99 0.1 NNW 35 57 19 31 1021.2 1017.8 2.0
30/11:00am 7.7 1.1 7.6 99 0.1 NNW 32 43 17 23 1021.7 1018.3 2.0
30/10:39am 7.7 1.1 7.6 99 0.1 NNW 32 52 17 28 1021.8 1018.4 2.0
30/10:30am 8.1 3.5 8.0 99 0.1 NW 22 41 12 22 1022.2 1018.8 1.8
30/10:00am 7.4 0.7 7.3 99 0.1 NW 32 50 17 27 1022.0 1018.7 0.6
30/09:34am 7.4 0.5 7.3 99 0.1 NNW 33 52 18 28 1021.8 1018.4 0.6
30/09:30am 7.4 0.7 7.3 99 0.1 NNW 32 48 17 26 1021.9 1018.6 0.6
30/09:08am 7.1 -0.2 7.0 99 0.1 NW 35 54 19 29 1022.0 1018.7 0.0
30/09:00am 7.2 -0.1 7.1 99 0.1 NW 35 50 19 27 1021.9 1018.6 21.0
30/08:49am 7.2 0.3 7.1 99 0.1 NW 33 63 18 34 1021.6 1018.2 21.0
30/08:30am 7.2 -0.1 7.1 99 0.1 NW 35 48 19 26 1022.0 1018.7 21.0
30/08:00am 7.1 0.3 7.0 99 0.1 NNW 32 43 17 23 1021.9 1018.6 21.0
30/07:36am 7.0 -0.4 6.9 99 0.1 NNW 35 54 19 29 1021.6 1018.2 21.0
30/07:30am 7.0 -0.7 6.9 99 0.1 NNW 37 52 20 28 1021.3 1017.9 21.0
30/07:02am 7.0 0.2 6.9 99 0.1 NNW 32 54 17 29 1021.1 1017.7 21.0
30/07:00am 7.0 0.6 6.9 99 0.1 NNW 30 43 16 23 1021.1 1017.7 21.0
30/06:30am 6.8 0.3 6.7 99 0.1 NNW 30 43 16 23 1020.8 1017.4 21.0
30/06:00am 7.0 0.0 6.9 99 0.1 NNW 33 48 18 26 1020.8 1017.4 21.0
30/05:48am 7.1 0.3 7.0 99 0.1 NNW 32 50 17 27 1020.7 1017.3 21.0
30/05:30am 7.1 0.1 7.0 99 0.1 NNW 33 44 18 24 1020.5 1017.0 20.8
30/05:00am 7.0 -1.1 6.9 99 0.1 NNW 39 50 21 27 1020.2 1016.8 20.8
30/04:31am 7.1 -0.2 7.0 99 0.1 NNW 35 54 19 29 1020.4 1016.9 20.4
30/04:30am 7.1 -0.6 7.0 99 0.1 NNW 37 54 20 29 1020.4 1016.9 20.4
30/04:04am 7.1 0.1 7.0 99 0.1 NW 33 52 18 28 1020.0 1016.5 20.0
30/04:00am 7.0 -0.4 6.9 99 0.1 NW 35 52 19 28 1019.9 1016.4 20.0
30/03:42am 6.8 -1.0 6.7 99 0.1 NNW 37 56 20 30 1019.4 1015.9 20.0
30/03:30am 7.0 -1.1 6.9 99 0.1 NNW 39 54 21 29 1019.9 1016.4 19.8
30/03:12am 7.1 0.7 7.0 99 0.1 NW 30 48 16 26 1019.7 1016.3 19.8
30/03:00am 7.0 0.0 6.9 99 0.1 NNW 33 48 18 26 1020.0 1016.5 19.8
30/02:30am 7.2 0.4 7.1 99 0.1 NW 32 56 17 30 1020.5 1017.0 19.4
30/02:07am 7.4 1.5 7.3 99 0.1 NW 28 46 15 25 1020.8 1017.4 19.2
30/02:00am 7.2 0.4 7.1 99 0.1 NW 32 46 17 25 1020.8 1017.4 19.0
30/01:33am 7.0 1.0 6.9 99 0.1 NW 28 46 15 25 1020.7 1017.3 18.6
30/01:30am 7.0 1.0 6.9 99 0.1 NW 28 44 15 24 1020.7 1017.3 18.6
30/01:14am 7.1 0.7 7.0 99 0.1 NW 30 48 16 26 1020.6 1017.2 18.4
30/01:00am 7.1 -0.6 7.0 99 0.1 NNW 37 52 20 28 1020.2 1016.8 18.4
30/12:30am 7.4 -2.0 7.3 99 0.1 NNW 46 67 25 36 1020.0 1016.5 18.2
30/12:09am 7.5 -0.1 7.4 99 0.1 NNW 37 57 20 31 1020.1 1016.7 17.6
30/12:00am 7.5 -0.1 7.4 99 0.1 NNW 37 52 20 28 1020.4 1016.9 17.4
 
Date/Time
EST
Tmp

°C
App
Tmp
°C
Dew
Point
°C
Rel
Hum
%
Delta-T

°C
Wind Press
QNH
hPa
Press
MSL
hPa
Rain
since
9 am
mm
Dir
 
Spd
km/h
Gust
km/h
Spd
kts
Gust
kts
29/11:39pm 7.3 0.4 7.2 99 0.1 NW 33 52 18 28 1020.4 1016.9 17.0
29/11:30pm 7.3 -0.8 7.2 99 0.1 NW 39 56 21 30 1020.2 1016.8 16.8
29/11:02pm 7.2 -1.6 7.1 99 0.1 NNW 43 63 23 34 1020.1 1016.7 16.2
29/11:00pm 7.2 -1.6 7.1 99 0.1 NNW 43 57 23 31 1020.5 1017.0 16.0
29/10:30pm 7.1 -2.7 7.0 99 0.1 NNW 48 69 26 37 1020.5 1017.0 14.6
29/10:00pm 7.3 -2.8 7.2 99 0.1 NNW 50 70 27 38 1019.7 1016.3 14.4
29/09:43pm 7.2 -3.7 7.1 99 0.1 NNW 54 72 29 39 1020.1 1016.7 13.8
29/09:30pm 7.3 -4.0 7.2 99 0.1 NNW 56 70 30 38 1019.7 1016.3 13.6
29/09:00pm 7.4 -2.3 7.3 99 0.1 NNW 48 69 26 37 1020.5 1017.0 13.0
29/08:30pm 7.2 -1.6 7.1 99 0.1 NNW 43 61 23 33 1020.7 1017.3 11.0
29/08:07pm 6.9 -2.6 6.8 99 0.1 NNW 46 65 25 35 1020.5 1017.0 10.2
29/08:00pm 7.0 -3.2 6.9 99 0.1 NNW 50 65 27 35 1020.0 1016.5 10.2
29/07:30pm 6.9 -5.4 6.8 99 0.1 NNW 61 82 33 44 1019.4 1015.9 9.4
29/07:00pm 6.7 -7.2 6.6 99 0.1 NNW 69 89 37 48 1018.3 1014.8 8.2
29/06:30pm 6.8 -5.9 6.7 99 0.1 NNW 63 82 34 44 1019.1 1015.7 6.2
29/06:09pm 7.3 -3.6 7.2 99 0.1 NNW 54 72 29 39 1019.7 1016.3 4.6
29/06:00pm 7.3 -2.8 7.2 99 0.1 NNW 50 67 27 36 1019.7 1016.3 4.2
29/05:30pm 7.2 -4.1 7.1 99 0.1 NNW 56 76 30 41 1020.0 1016.5 2.4
29/05:23pm 7.1 -4.8 7.0 99 0.1 NNW 59 78 32 42 1019.7 1016.3 2.2
29/05:13pm 7.1 -3.5 7.0 99 0.1 NNW 52 78 28 42 1019.5 1016.0 2.2
29/05:00pm 7.2 -1.8 7.1 99 0.1 NNW 44 67 24 36 1020.7 1017.3 1.2
29/04:38pm 7.1 -2.0 7.0 99 0.1 NNW 44 63 24 34 1021.1 1017.7 0.2
29/04:30pm 7.0 -2.1 6.9 99 0.1 NNW 44 61 24 33 1020.8 1017.4 0.0
29/04:00pm 7.6 -0.1 7.2 97 0.2 NNW 37 56 20 30 1021.4 1018.1 0.0
29/03:30pm 8.6 -1.7 6.6 87 1.0 NNW 50 69 27 37 1020.5 1017.0 0.0
29/03:00pm 8.6 0.4 6.7 88 1.0 NNW 39 57 21 31 1021.2 1017.8 0.0
29/02:31pm 8.7 0.9 6.7 87 1.0 NNW 37 56 20 30 1021.2 1017.8 0.0
29/02:30pm 8.8 0.7 6.8 87 1.0 NNW 39 56 21 30 1021.3 1017.9 0.0
29/02:00pm 8.3 -0.6 6.9 91 0.7 NNW 43 61 23 33 1021.2 1017.8 0.0
29/01:51pm 8.5 1.2 7.1 91 0.7 NNW 35 61 19 33 1021.7 1018.3 0.0
29/01:30pm 8.5 1.6 7.3 92 0.6 NNW 33 48 18 26 1022.0 1018.7 0.0
29/01:00pm 8.3 -0.5 7.2 93 0.6 NNW 43 65 23 35 1021.8 1018.4 0.0
29/12:30pm 8.4 -1.0 7.2 92 0.6 NNW 46 65 25 35 1021.8 1018.4 0.0
29/12:00pm 7.9 -2.3 7.1 95 0.4 NNW 50 70 27 38 1022.3 1018.9 0.0
29/11:52am 7.8 -3.5 7.1 95 0.4 NNW 56 74 30 40 1022.3 1018.9 0.0
29/11:30am 8.1 -3.4 7.0 93 0.6 NNW 57 74 31 40 1021.7 1018.3 0.0
29/11:08am 8.2 -4.1 7.0 92 0.6 NNW 61 80 33 43 1022.9 1019.6 0.0
29/11:00am 8.2 -4.9 6.8 91 0.7 NNW 65 80 35 43 1022.4 1019.1 0.0
29/10:30am 8.0 -2.9 7.1 94 0.5 NNW 54 67 29 36 1023.4 1020.1 0.0
29/10:00am 8.1 -1.7 7.2 94 0.5 NNW 48 65 26 35 1023.6 1020.3 0.0
29/09:30am 7.9 -2.7 7.1 95 0.4 NNW 52 65 28 35 1023.7 1020.5 0.0
29/09:00am 7.7 -2.4 7.4 98 0.2 NNW 50 63 27 34 1024.5 1021.2 0.0
29/08:30am 7.8 -2.7 7.4 97 0.2 NNW 52 65 28 35 1024.6 1021.3 0.0
29/08:00am 7.9 -1.0 7.5 97 0.2 NNW 44 59 24 32 1024.5 1021.2 0.0
29/07:38am 8.0 -0.8 7.4 96 0.3 NNW 43 69 23 37 1025.0 1021.7 0.0
29/07:30am 8.0 -1.3 7.6 97 0.2 NNW 46 57 25 31 1025.1 1021.8 0.0
29/07:14am 8.0 -0.8 7.2 95 0.4 NNW 43 63 23 34 1025.0 1021.7 0.0
29/07:00am 8.3 -1.9 6.8 90 0.8 NNW 50 63 27 34 1024.3 1021.1 0.0
29/06:31am 8.1 -1.2 7.5 96 0.3 NNW 46 65 25 35 1024.7 1021.5 0.0
29/06:30am 7.9 -1.8 7.6 98 0.2 NNW 48 65 26 35 1024.8 1021.6 0.0
29/06:22am 8.1 -1.3 7.2 94 0.5 NNW 46 65 25 35 1024.5 1021.2 0.0
29/06:00am 7.8 -0.9 7.5 98 0.2 NNW 43 57 23 31 1024.8 1021.6 0.0
29/05:33am 7.9 -1.5 7.3 96 0.3 NNW 46 65 25 35 1024.7 1021.5 0.0
29/05:30am 7.9 -1.5 7.3 96 0.3 NNW 46 61 25 33 1025.0 1021.7 0.0
29/05:00am 8.0 -0.9 6.9 93 0.6 NNW 43 57 23 31 1024.7 1021.5 0.0
29/04:30am 8.0 -0.1 6.9 93 0.6 NNW 39 57 21 31 1024.8 1021.6 0.0
29/04:25am 7.9 -0.2 7.1 95 0.4 NNW 39 57 21 31 1024.7 1021.5 0.0
29/04:00am 8.0 -0.9 6.8 92 0.6 NNW 43 59 23 32 1024.3 1021.1 0.0
29/03:30am 7.9 -1.2 6.7 92 0.6 NNW 44 65 24 35 1024.5 1021.2 0.0
29/03:01am 8.0 -1.4 7.1 94 0.5 NNW 46 65 25 35 1024.8 1021.6 0.0
29/03:00am 8.0 -1.8 7.1 94 0.5 NNW 48 65 26 35 1024.6 1021.3 0.0
29/02:30am 8.1 -1.1 6.2 88 1.0 NNW 44 57 24 31 1024.8 1021.6 0.0
29/02:00am 7.9 -2.4 6.4 90 0.8 NNW 50 59 27 32 1025.0 1021.7 0.0
29/01:30am 8.0 -1.6 6.1 88 1.0 NNW 46 59 25 32 1025.2 1022.0 0.0
29/01:00am 8.0 -0.7 5.8 86 1.1 NNW 41 57 22 31 1025.4 1022.2 0.0
29/12:30am 7.8 -1.4 5.6 86 1.1 NNW 43 54 23 29 1025.8 1022.6 0.0
29/12:00am 7.7 -0.4 5.2 84 1.2 NNW 37 46 20 25 1026.2 1023.0 0.0
 
Date/Time
EST
Tmp

°C
App
Tmp
°C
Dew
Point
°C
Rel
Hum
%
Delta-T

°C
Wind Press
QNH
hPa
Press
MSL
hPa
Rain
since
9 am
mm
Dir
 
Spd
km/h
Gust
km/h
Spd
kts
Gust
kts
28/11:30pm 7.2 1.4 4.5 83 1.3 NNW 24 35 13 19 1026.9 1023.7 0.0
28/11:00pm 6.7 2.6 4.4 85 1.1 N 15 20 8 11 1027.5 1024.4 0.0
28/10:30pm 6.9 2.6 5.1 88 0.9 N 17 20 9 11 1028.1 1025.0 0.0
28/10:00pm 7.0 1.8 5.5 90 0.7 N 22 26 12 14 1028.2 1025.1 0.0
28/09:30pm 5.8 1.0 5.4 97 0.2 N 20 26 11 14 1027.6 1024.5 0.0
28/09:00pm 6.8 3.0 5.7 93 0.6 NNE 15 19 8 10 1027.7 1024.6 0.0
28/08:30pm 6.3 2.3 5.1 92 0.6 NNE 15 20 8 11 1028.0 1024.9 0.0
28/08:00pm 6.8 2.5 5.3 90 0.7 NNE 17 19 9 10 1027.9 1024.7 0.0
28/07:30pm 7.1 3.6 5.4 89 0.9 NNE 13 19 7 10 1027.6 1024.5 0.0
28/07:00pm 6.9 3.3 5.1 88 0.9 N 13 15 7 8 1027.5 1024.4 0.0
28/06:30pm 7.0 2.8 5.5 90 0.8 N 17 24 9 13 1027.3 1024.1 0.0

Latest Capital City Observations: Canberra | Sydney | Melbourne | Brisbane | Adelaide | Perth | Hobart | Darwin

Other Formats:

Comma delimited format used in spreadsheet applications
http://www.bom.gov.au/fwo/IDN60903/IDN60903.95909.axf

JavaScript Object Notation format (JSON) in row-major order
http://www.bom.gov.au/fwo/IDN60903/IDN60903.95909.json